createdAt,value
2023-04-23T00:01:19.418Z,9.48
2023-04-23T00:03:50.249Z,9.38
2023-04-23T00:06:17.983Z,10.38
2023-04-23T00:08:45.437Z,10.98
2023-04-23T00:11:12.806Z,12.45
2023-04-23T00:13:40.119Z,9.85
2023-04-23T00:16:07.791Z,10.18
2023-04-23T00:18:34.883Z,11.68
2023-04-23T00:21:01.827Z,9.68
2023-04-23T00:23:29.095Z,10.20
2023-04-23T00:25:56.148Z,9.27
2023-04-23T00:28:23.404Z,8.85
2023-04-23T00:30:51.185Z,6.80
2023-04-23T00:33:18.348Z,5.82
2023-04-23T00:35:45.706Z,7.30
2023-04-23T00:38:12.606Z,6.03
2023-04-23T00:40:40.369Z,5.70
2023-04-23T00:43:07.611Z,5.55
2023-04-23T00:45:34.953Z,5.32
2023-04-23T00:48:04.033Z,5.93
2023-04-23T00:50:31.127Z,6.22
2023-04-23T00:52:59.120Z,5.95
2023-04-23T00:55:26.824Z,6.35
2023-04-23T00:57:55.011Z,5.97
2023-04-23T01:00:22.186Z,5.90
2023-04-23T01:02:50.739Z,6.72
2023-04-23T01:05:18.367Z,6.80
2023-04-23T01:07:46.962Z,6.30
2023-04-23T01:10:14.094Z,5.57
2023-04-23T01:12:42.117Z,5.10
2023-04-23T01:15:09.878Z,5.57
2023-04-23T01:17:37.286Z,5.38
2023-04-23T01:20:06.781Z,6.05
2023-04-23T01:22:38.576Z,4.82
2023-04-23T01:25:06.201Z,5.20
2023-04-23T01:27:36.101Z,4.72
2023-04-23T01:30:05.751Z,5.80
2023-04-23T01:32:34.234Z,5.30
2023-04-23T01:35:03.336Z,4.93
2023-04-23T01:37:30.752Z,4.88
2023-04-23T01:39:57.722Z,5.05
2023-04-23T01:42:24.744Z,4.63
2023-04-23T01:44:53.809Z,4.22
2023-04-23T01:47:21.741Z,4.65
2023-04-23T01:49:48.845Z,4.63
2023-04-23T01:52:15.950Z,4.53
2023-04-23T01:54:43.277Z,4.63
2023-04-23T01:57:11.036Z,5.55
2023-04-23T01:59:38.826Z,4.68
2023-04-23T02:02:06.049Z,4.50
2023-04-23T02:04:34.443Z,5.28
2023-04-23T02:07:01.529Z,6.18
2023-04-23T02:09:28.497Z,4.30
2023-04-23T02:11:57.861Z,4.72
2023-04-23T02:14:24.959Z,4.90
2023-04-23T02:16:52.826Z,6.07
2023-04-23T02:19:19.799Z,4.78
2023-04-23T02:21:46.917Z,4.35
2023-04-23T02:24:13.937Z,5.45
2023-04-23T02:26:41.109Z,5.05
2023-04-23T02:29:08.108Z,5.15
2023-04-23T02:31:35.200Z,4.40
2023-04-23T02:34:02.365Z,5.82
2023-04-23T02:36:31.301Z,3.97
2023-04-23T02:38:58.466Z,4.35
2023-04-23T02:41:25.493Z,4.45
2023-04-23T02:43:52.471Z,5.30
2023-04-23T02:46:19.481Z,4.18
2023-04-23T02:48:46.829Z,4.00
2023-04-23T02:51:14.464Z,4.50
2023-04-23T02:53:41.654Z,5.15
2023-04-23T02:56:08.770Z,4.15
2023-04-23T02:58:36.294Z,3.92
2023-04-23T03:01:03.939Z,4.88
2023-04-23T03:03:34.659Z,3.80
2023-04-23T03:06:05.149Z,4.75
2023-04-23T03:08:32.433Z,3.97
2023-04-23T03:11:00.402Z,4.30
2023-04-23T03:13:27.560Z,4.25
2023-04-23T03:15:55.560Z,4.10
2023-04-23T03:18:22.619Z,3.97
2023-04-23T03:20:52.872Z,3.80
2023-04-23T03:23:19.908Z,5.15
2023-04-23T03:25:47.845Z,4.28
2023-04-23T03:28:15.076Z,5.10
2023-04-23T03:30:42.792Z,4.50
2023-04-23T03:33:10.006Z,5.85
2023-04-23T03:35:37.650Z,4.18
2023-04-23T03:38:09.378Z,3.90
2023-04-23T03:40:36.892Z,4.50
2023-04-23T03:43:06.561Z,4.38
2023-04-23T03:45:53.813Z,4.22
2023-04-23T03:48:21.771Z,3.50
2023-04-23T03:50:49.401Z,4.32
2023-04-23T03:53:38.862Z,4.20
2023-04-23T03:56:26.964Z,3.75
2023-04-23T03:59:11.222Z,5.10
2023-04-23T04:01:38.244Z,4.00
2023-04-23T04:04:05.785Z,3.40
2023-04-23T04:06:34.005Z,3.95
2023-04-23T04:09:00.981Z,5.18
2023-04-23T04:11:29.526Z,4.25
2023-04-23T04:13:56.664Z,4.53
2023-04-23T04:16:23.679Z,5.38
2023-04-23T04:18:50.652Z,4.70
2023-04-23T04:21:19.038Z,4.57
2023-04-23T04:23:46.082Z,4.63
2023-04-23T04:26:13.705Z,4.85
2023-04-23T04:28:40.704Z,4.93
2023-04-23T04:31:08.707Z,4.88
2023-04-23T04:33:36.177Z,4.70
2023-04-23T04:36:03.752Z,5.40
2023-04-23T04:38:31.081Z,5.35
2023-04-23T04:41:02.112Z,5.47
2023-04-23T04:43:29.342Z,5.20
2023-04-23T04:45:56.228Z,5.28
2023-04-23T04:48:23.277Z,6.20
2023-04-23T04:50:50.511Z,5.93
2023-04-23T04:53:17.476Z,5.43
2023-04-23T04:55:44.492Z,6.30
2023-04-23T04:58:11.608Z,5.88
2023-04-23T05:00:38.679Z,5.68
2023-04-23T05:03:06.341Z,5.03
2023-04-23T05:05:33.862Z,5.72
2023-04-23T05:08:02.445Z,4.80
2023-04-23T05:10:30.120Z,5.00
2023-04-23T05:12:58.480Z,5.32
2023-04-23T05:15:25.389Z,5.78
2023-04-23T05:17:53.759Z,6.55
2023-04-23T05:20:21.760Z,6.40
2023-04-23T05:22:48.704Z,4.85
2023-04-23T05:25:15.786Z,4.93
2023-04-23T05:27:42.855Z,5.95
2023-04-23T05:30:11.042Z,5.75
2023-04-23T05:32:38.875Z,5.82
2023-04-23T05:35:07.214Z,5.90
2023-04-23T05:37:34.421Z,6.40
2023-04-23T05:40:02.769Z,5.20
2023-04-23T05:42:29.765Z,5.65
2023-04-23T05:44:56.641Z,6.40
2023-04-23T05:47:23.666Z,5.47
2023-04-23T05:49:50.809Z,5.38
2023-04-23T05:52:18.959Z,4.93
2023-04-23T05:54:45.907Z,5.10
2023-04-23T05:57:13.116Z,5.38
2023-04-23T05:59:40.005Z,6.18
2023-04-23T06:02:08.645Z,6.05
2023-04-23T06:04:36.441Z,6.00
2023-04-23T06:07:04.478Z,5.40
2023-04-23T06:09:31.443Z,5.00
2023-04-23T06:11:59.369Z,5.65
2023-04-23T06:14:26.245Z,4.85
2023-04-23T06:16:53.228Z,5.20
2023-04-23T06:19:20.637Z,5.85
2023-04-23T06:21:47.618Z,5.05
2023-04-23T06:24:14.540Z,5.55
2023-04-23T06:26:41.537Z,6.22
2023-04-23T06:29:14.504Z,6.00
2023-04-23T06:31:55.123Z,6.00
2023-04-23T06:34:22.065Z,6.82
2023-04-23T06:36:49.079Z,5.47
2023-04-23T06:39:16.218Z,5.43
2023-04-23T06:41:43.600Z,5.40
2023-04-23T06:44:22.541Z,5.65
2023-04-23T06:46:52.176Z,5.95
2023-04-23T06:49:19.277Z,5.45
2023-04-23T06:51:46.322Z,5.32
2023-04-23T06:54:13.218Z,5.40
2023-04-23T06:56:40.259Z,6.03
2023-04-23T06:59:07.886Z,4.72
2023-04-23T07:01:41.081Z,7.28
2023-04-23T07:04:08.385Z,5.55
2023-04-23T07:06:35.750Z,5.45
2023-04-23T07:09:02.932Z,5.88
2023-04-23T07:11:31.889Z,4.22
2023-04-23T07:13:58.920Z,4.47
2023-04-23T07:16:26.069Z,4.95
2023-04-23T07:18:53.536Z,4.65
2023-04-23T07:21:21.057Z,4.20
2023-04-23T07:23:47.985Z,4.88
2023-04-23T07:26:15.065Z,4.65
2023-04-23T07:28:42.147Z,5.10
2023-04-23T07:31:09.432Z,5.22
2023-04-23T07:33:36.591Z,4.63
2023-04-23T07:36:03.556Z,4.68
2023-04-23T07:39:02.212Z,5.05
2023-04-23T07:41:29.260Z,5.32
2023-04-23T07:43:56.702Z,4.57
2023-04-23T07:46:23.790Z,5.03
2023-04-23T07:48:51.633Z,4.72
2023-04-23T07:51:18.918Z,5.15
2023-04-23T07:53:47.138Z,5.05
2023-04-23T07:56:14.605Z,5.80
2023-04-23T07:58:41.552Z,5.25
2023-04-23T08:01:08.664Z,4.88
2023-04-23T08:03:35.797Z,5.30
2023-04-23T08:06:04.778Z,4.68
2023-04-23T08:08:31.733Z,5.07
2023-04-23T08:10:58.945Z,5.60
2023-04-23T08:13:25.924Z,5.85
2023-04-23T08:15:52.942Z,4.68
2023-04-23T08:18:19.873Z,5.20
2023-04-23T08:20:46.900Z,4.95
2023-04-23T08:23:20.752Z,4.70
2023-04-23T08:25:47.688Z,4.78
2023-04-23T08:28:14.610Z,4.68
2023-04-23T08:30:41.788Z,3.55
2023-04-23T08:33:08.820Z,4.15
2023-04-23T08:35:35.899Z,4.05
2023-04-23T08:38:02.929Z,4.15
2023-04-23T08:40:31.894Z,4.50
2023-04-23T08:43:02.994Z,5.63
2023-04-23T08:45:31.058Z,4.22
2023-04-23T08:48:02.678Z,4.40
2023-04-23T08:50:34.186Z,4.50
2023-04-23T08:53:04.617Z,4.18
2023-04-23T08:55:34.081Z,5.22
2023-04-23T08:58:02.655Z,5.03
2023-04-23T09:00:30.171Z,5.35
2023-04-23T09:02:57.900Z,5.60
2023-04-23T09:05:26.529Z,6.03
2023-04-23T09:07:54.616Z,5.32
2023-04-23T09:10:21.672Z,5.40
2023-04-23T09:12:48.810Z,5.63
2023-04-23T09:15:17.075Z,6.50
2023-04-23T09:17:46.842Z,6.32
2023-04-23T09:20:14.871Z,6.22
2023-04-23T09:22:48.884Z,5.82
2023-04-23T09:25:19.099Z,5.90
2023-04-23T09:27:47.465Z,6.90
2023-04-23T09:30:15.544Z,5.93
2023-04-23T09:32:43.983Z,6.60
2023-04-23T09:35:14.135Z,6.22
2023-04-23T09:37:43.360Z,6.38
2023-04-23T09:40:14.458Z,6.90
2023-04-23T09:42:41.530Z,6.07
2023-04-23T09:45:11.991Z,6.03
2023-04-23T09:47:40.301Z,5.68
2023-04-23T09:50:10.556Z,6.15
2023-04-23T09:52:41.214Z,5.55
2023-04-23T09:55:08.789Z,6.00
2023-04-23T09:57:41.539Z,5.35
2023-04-23T10:00:21.334Z,5.55
2023-04-23T10:02:50.334Z,6.25
2023-04-23T10:05:24.803Z,5.43
2023-04-23T10:07:56.607Z,5.53
2023-04-23T10:10:24.727Z,5.93
2023-04-23T10:12:55.582Z,5.85
2023-04-23T10:15:27.468Z,5.95
2023-04-23T10:17:56.021Z,6.28
2023-04-23T10:20:23.985Z,5.95
2023-04-23T10:22:53.932Z,6.05
2023-04-23T10:25:23.066Z,6.93
2023-04-23T10:27:54.237Z,5.70
2023-04-23T10:30:23.217Z,7.82
2023-04-23T10:32:51.099Z,6.43
2023-04-23T10:35:18.489Z,6.18
2023-04-23T10:37:48.358Z,6.50
2023-04-23T10:40:22.141Z,6.47
2023-04-23T10:42:50.237Z,5.80
2023-04-23T10:47:55.490Z,6.70
2023-04-23T10:50:23.100Z,6.25
2023-04-23T10:52:54.453Z,6.40
2023-04-23T10:55:26.692Z,5.68
2023-04-23T10:58:07.899Z,6.55
2023-04-23T11:00:47.803Z,6.50
2023-04-23T11:03:43.414Z,5.90
2023-04-23T11:06:20.821Z,5.82
2023-04-23T11:08:55.280Z,5.45
2023-04-23T11:11:41.731Z,6.38
2023-04-23T11:14:15.763Z,6.22
2023-04-23T11:16:43.574Z,6.40
2023-04-23T11:19:12.905Z,7.00
2023-04-23T11:21:58.914Z,6.80
2023-04-23T11:24:30.253Z,7.90
2023-04-23T11:26:58.116Z,7.28
2023-04-23T11:29:27.101Z,7.75
2023-04-23T11:32:02.723Z,7.65
2023-04-23T11:34:32.657Z,7.43
2023-04-23T11:37:00.767Z,8.38
2023-04-23T11:39:28.505Z,7.07
2023-04-23T11:41:55.719Z,7.90
2023-04-23T11:44:22.868Z,7.35
2023-04-23T11:46:50.611Z,7.53
2023-04-23T11:49:18.976Z,6.63
2023-04-23T11:51:47.132Z,7.18
2023-04-23T11:54:15.035Z,6.97
2023-04-23T11:56:42.427Z,6.45
2023-04-23T11:59:09.741Z,5.95
2023-04-23T12:01:49.435Z,6.03
2023-04-23T12:04:19.833Z,6.18
2023-04-23T12:06:48.894Z,7.03
2023-04-23T12:09:17.566Z,6.18
2023-04-23T12:11:46.029Z,6.00
2023-04-23T12:14:15.307Z,6.03
2023-04-23T12:16:43.800Z,6.72
2023-04-23T12:19:14.875Z,5.68
2023-04-23T12:21:55.785Z,5.85
2023-04-23T12:24:30.936Z,6.70
2023-04-23T12:27:02.693Z,5.95
2023-04-23T12:29:31.179Z,6.53
2023-04-23T12:31:59.857Z,6.55
2023-04-23T12:34:26.955Z,7.03
2023-04-23T12:37:07.584Z,6.92
2023-04-23T12:39:36.051Z,6.03
2023-04-23T12:42:09.810Z,5.85
2023-04-23T12:44:38.757Z,5.57
2023-04-23T12:47:11.586Z,5.90
2023-04-23T12:49:40.308Z,5.63
2023-04-23T12:52:08.124Z,5.20
2023-04-23T12:54:38.026Z,6.05
2023-04-23T12:57:07.733Z,6.38
2023-04-23T12:59:34.751Z,6.45
2023-04-23T13:02:03.091Z,6.95
2023-04-23T13:04:32.358Z,6.03
2023-04-23T13:06:59.489Z,5.55
2023-04-23T13:09:40.274Z,5.50
2023-04-23T13:12:07.353Z,6.15
2023-04-23T13:14:34.353Z,6.88
2023-04-23T13:17:01.391Z,6.82
2023-04-23T13:19:28.390Z,6.55
2023-04-23T13:21:55.520Z,6.97
2023-04-23T13:24:22.465Z,7.00
2023-04-23T13:26:49.452Z,5.88
2023-04-23T13:29:16.462Z,6.63
2023-04-23T13:31:43.531Z,6.55
2023-04-23T13:34:10.618Z,6.20
2023-04-23T13:36:37.896Z,6.93
2023-04-23T13:39:04.910Z,7.32
2023-04-23T13:41:32.021Z,6.10
2023-04-23T13:43:59.852Z,6.30
2023-04-23T13:46:26.965Z,5.28
2023-04-23T13:48:54.348Z,5.65
2023-04-23T13:51:33.894Z,5.95
2023-04-23T13:54:01.836Z,5.95
2023-04-23T13:56:30.290Z,5.95
2023-04-23T14:01:32.262Z,4.88
2023-04-23T14:03:59.229Z,5.72
2023-04-23T14:06:26.981Z,4.90
2023-04-23T14:08:53.916Z,6.97
2023-04-23T14:11:22.753Z,5.07
2023-04-23T14:13:49.928Z,4.47
2023-04-23T14:16:17.642Z,4.15
2023-04-23T14:18:44.652Z,6.50
2023-04-23T14:21:13.278Z,4.68
2023-04-23T14:23:49.140Z,4.70
2023-04-23T14:26:50.142Z,4.30
2023-04-23T14:29:23.240Z,6.10
2023-04-23T14:31:50.731Z,8.45
2023-04-23T14:34:17.721Z,4.03
2023-04-23T14:36:46.685Z,19.50
2023-04-23T14:39:13.654Z,5.57
2023-04-23T14:41:41.143Z,5.82
2023-04-23T14:44:09.058Z,7.03
2023-04-23T14:46:36.241Z,4.28
2023-04-23T14:49:04.055Z,3.45
2023-04-23T14:51:31.463Z,3.38
2023-04-23T14:53:58.442Z,3.47
2023-04-23T14:56:25.724Z,3.33
2023-04-23T14:58:52.624Z,3.65
2023-04-23T15:01:19.670Z,3.88
2023-04-23T15:03:47.049Z,2.95
2023-04-23T15:06:14.326Z,2.72
2023-04-23T15:08:41.222Z,3.10
2023-04-23T15:11:13.484Z,3.50
2023-04-23T15:13:50.885Z,3.47
2023-04-23T15:16:46.609Z,3.80
2023-04-23T15:19:15.039Z,4.07
2023-04-23T15:21:43.230Z,2.92
2023-04-23T15:24:10.768Z,3.10
2023-04-23T15:26:38.055Z,3.22
2023-04-23T15:29:09.052Z,3.30
2023-04-23T15:31:39.110Z,2.92
2023-04-23T15:34:09.242Z,2.75
2023-04-23T15:36:37.707Z,3.15
2023-04-23T15:39:06.538Z,3.53
2023-04-23T15:41:39.562Z,4.60
2023-04-23T15:44:11.943Z,4.03
2023-04-23T15:46:39.945Z,3.17
2023-04-23T15:49:06.920Z,3.63
2023-04-23T15:51:33.868Z,3.03
2023-04-23T15:54:02.291Z,3.47
2023-04-23T15:56:29.292Z,3.25
2023-04-23T15:59:03.418Z,3.10
2023-04-23T16:01:33.746Z,2.40
2023-04-23T16:04:10.463Z,2.60
2023-04-23T16:06:39.515Z,3.00
2023-04-23T16:09:12.791Z,2.60
2023-04-23T16:11:40.065Z,2.22
2023-04-23T16:14:09.490Z,2.47
2023-04-23T16:16:38.318Z,2.53
2023-04-23T16:19:05.451Z,3.17
2023-04-23T16:21:32.846Z,2.85
2023-04-23T16:23:59.866Z,3.65
2023-04-23T16:26:28.242Z,3.17
2023-04-23T16:29:05.749Z,3.17
2023-04-23T16:31:39.101Z,2.28
2023-04-23T16:34:06.163Z,2.63
2023-04-23T16:36:33.224Z,3.30
2023-04-23T16:39:00.223Z,2.67
2023-04-23T16:41:27.486Z,1.88
2023-04-23T16:43:54.339Z,4.05
2023-04-23T16:46:21.449Z,2.33
2023-04-23T16:48:48.600Z,2.45
2023-04-23T16:51:15.658Z,1.98
2023-04-23T16:53:42.765Z,2.20
2023-04-23T16:56:09.853Z,2.15
2023-04-23T16:58:36.896Z,1.70
2023-04-23T17:01:04.141Z,2.20
2023-04-23T17:03:31.390Z,2.08
2023-04-23T17:06:29.914Z,2.63
2023-04-23T17:08:59.141Z,2.22
2023-04-23T17:11:28.304Z,2.38
2023-04-23T17:13:56.101Z,2.42
2023-04-23T17:16:25.293Z,2.25
2023-04-23T17:18:53.030Z,2.50
2023-04-23T17:21:20.346Z,2.60
2023-04-23T17:23:47.740Z,2.47
2023-04-23T17:29:18.956Z,2.10
2023-04-23T17:31:45.968Z,2.72
2023-04-23T17:34:13.175Z,2.47
2023-04-23T17:36:40.194Z,2.58
2023-04-23T17:39:07.823Z,1.92
2023-04-23T17:41:34.869Z,2.58
2023-04-23T17:44:01.888Z,2.00
2023-04-23T17:46:28.955Z,2.25
2023-04-23T17:48:56.769Z,2.05
2023-04-23T17:51:23.685Z,2.05
2023-04-23T17:53:51.107Z,2.13
2023-04-23T17:56:18.242Z,2.20
2023-04-23T17:58:45.325Z,2.50
2023-04-23T18:01:12.666Z,2.17
2023-04-23T18:03:40.691Z,2.10
2023-04-23T18:06:09.351Z,1.90
2023-04-23T18:08:37.585Z,2.08
2023-04-23T18:11:06.888Z,2.25
2023-04-23T18:13:34.084Z,2.05
2023-04-23T18:16:01.017Z,2.60
2023-04-23T18:18:28.152Z,2.97
2023-04-23T18:20:55.112Z,3.00
2023-04-23T18:23:22.403Z,2.77
2023-04-23T18:25:49.622Z,2.47
2023-04-23T18:28:16.713Z,2.47
2023-04-23T18:30:43.848Z,2.35
2023-04-23T18:33:36.826Z,3.28
2023-04-23T18:36:36.587Z,2.63
2023-04-23T18:39:04.207Z,2.80
2023-04-23T18:41:31.217Z,2.20
2023-04-23T18:44:00.404Z,2.38
2023-04-23T18:46:29.008Z,2.17
2023-04-23T18:49:01.746Z,2.83
2023-04-23T18:51:38.613Z,2.75
2023-04-23T18:54:06.054Z,2.30
2023-04-23T18:56:33.859Z,2.08
2023-04-23T18:59:00.885Z,1.65
2023-04-23T19:01:28.520Z,1.70
2023-04-23T19:03:56.629Z,1.58
2023-04-23T19:06:23.667Z,1.67
2023-04-23T19:08:50.952Z,1.92
2023-04-23T19:11:17.955Z,1.90
2023-04-23T19:13:45.073Z,2.35
2023-04-23T19:16:12.097Z,1.98
2023-04-23T19:18:39.155Z,2.80
2023-04-23T19:21:06.130Z,2.33
2023-04-23T19:23:33.962Z,3.15
2023-04-23T19:26:01.839Z,3.97
2023-04-23T19:28:29.022Z,2.58
2023-04-23T19:30:57.031Z,3.03
2023-04-23T19:33:24.446Z,3.88
2023-04-23T19:35:51.329Z,4.00
2023-04-23T19:38:18.690Z,4.15
2023-04-23T19:40:45.758Z,4.07
2023-04-23T19:43:13.000Z,4.40
2023-04-23T19:45:39.919Z,2.95
2023-04-23T19:48:08.338Z,3.70
2023-04-23T19:50:35.672Z,5.07
2023-04-23T19:53:05.109Z,4.97
2023-04-23T19:55:32.104Z,5.22
2023-04-23T19:57:59.084Z,4.63
2023-04-23T20:00:30.043Z,5.20
2023-04-23T20:02:58.250Z,5.60
2023-04-23T20:05:25.768Z,4.70
2023-04-23T20:07:52.713Z,6.43
2023-04-23T20:10:19.769Z,5.15
2023-04-23T20:12:46.830Z,5.18
2023-04-23T20:15:14.288Z,4.55
2023-04-23T20:17:41.699Z,4.57
2023-04-23T20:20:10.785Z,6.15
2023-04-23T20:22:37.822Z,4.50
2023-04-23T20:25:05.379Z,5.68
2023-04-23T20:27:32.784Z,5.13
2023-04-23T20:29:59.945Z,5.13
2023-04-23T20:32:26.910Z,4.22
2023-04-23T20:34:53.926Z,4.20
2023-04-23T20:37:21.870Z,9.40
2023-04-23T20:39:49.944Z,4.40
2023-04-23T20:42:17.274Z,3.97
2023-04-23T20:44:47.009Z,4.00
2023-04-23T20:47:16.451Z,5.60
2023-04-23T20:49:43.777Z,4.50
2023-04-23T20:52:12.458Z,3.95
2023-04-23T20:54:39.457Z,4.22
2023-04-23T20:57:07.118Z,4.05
2023-04-23T20:59:34.238Z,3.78
2023-04-23T21:02:01.313Z,4.20
2023-04-23T21:04:28.508Z,9.02
2023-04-23T21:06:56.017Z,3.17
2023-04-23T21:09:22.913Z,4.90
2023-04-23T21:11:51.091Z,3.85
2023-04-23T21:14:18.021Z,3.80
2023-04-23T21:16:44.953Z,4.80
2023-04-23T21:19:11.866Z,3.35
2023-04-23T21:21:38.865Z,2.83
2023-04-23T21:24:06.478Z,3.25
2023-04-23T21:26:33.493Z,4.60
2023-04-23T21:29:00.584Z,3.72
2023-04-23T21:31:43.295Z,3.50
2023-04-23T21:34:10.245Z,2.20
2023-04-23T21:36:37.248Z,3.03
2023-04-23T21:39:04.774Z,2.65
2023-04-23T21:41:31.818Z,2.85
2023-04-23T21:43:58.901Z,6.45
2023-04-23T21:46:26.393Z,6.57
2023-04-23T21:48:54.044Z,3.60
2023-04-23T21:51:22.881Z,2.72
2023-04-23T21:53:49.852Z,3.10
2023-04-23T21:56:17.850Z,2.88
2023-04-23T21:58:45.156Z,3.08
2023-04-23T22:01:12.136Z,3.03
2023-04-23T22:03:42.795Z,2.40
2023-04-23T22:06:09.954Z,2.45
2023-04-23T22:08:40.524Z,2.65
2023-04-23T22:11:08.842Z,2.70
2023-04-23T22:13:36.422Z,2.75
2023-04-23T22:16:10.734Z,3.17
2023-04-23T22:18:44.794Z,2.22
2023-04-23T22:21:11.768Z,2.30
2023-04-23T22:23:38.953Z,2.80
2023-04-23T22:26:06.032Z,3.30
2023-04-23T22:28:33.056Z,6.60
2023-04-23T22:31:00.040Z,2.92
2023-04-23T22:33:28.462Z,2.20
2023-04-23T22:35:55.374Z,2.45
2023-04-23T22:38:22.427Z,2.53
2023-04-23T22:40:49.373Z,2.63
2023-04-23T22:43:16.455Z,3.58
2023-04-23T22:45:43.607Z,3.88
2023-04-23T22:48:10.620Z,2.90
2023-04-23T22:50:40.159Z,2.40
2023-04-23T22:53:07.184Z,2.70
2023-04-23T22:55:34.420Z,3.42
2023-04-23T22:58:01.384Z,3.85
2023-04-23T23:00:28.301Z,2.88
2023-04-23T23:02:56.036Z,2.75
2023-04-23T23:05:23.037Z,2.97
2023-04-23T23:07:50.312Z,3.22
2023-04-23T23:10:17.259Z,4.45
2023-04-23T23:12:44.731Z,2.88
2023-04-23T23:15:12.034Z,2.40
2023-04-23T23:17:39.223Z,2.40
2023-04-23T23:20:09.326Z,3.08
2023-04-23T23:22:36.605Z,2.72
2023-04-23T23:25:04.327Z,3.30
2023-04-23T23:27:31.175Z,3.22
2023-04-23T23:29:58.165Z,2.90
2023-04-23T23:32:25.158Z,2.75
2023-04-23T23:34:52.073Z,2.90
2023-04-23T23:37:19.490Z,3.20
2023-04-23T23:39:46.448Z,2.35
2023-04-23T23:42:13.339Z,3.10
2023-04-23T23:44:40.454Z,3.00
2023-04-23T23:47:07.450Z,3.08
2023-04-23T23:49:34.596Z,3.05
2023-04-23T23:52:02.217Z,3.47
2023-04-23T23:54:29.064Z,3.17
2023-04-23T23:56:57.335Z,2.88
2023-04-23T23:59:24.302Z,3.95
